Time;durP1;ratioP1;P1;durP2;ratioP2;P2;SDS_P1;SDS_P2;PMS_P1;PMS_P2;Temp;Humidity;BMP_temperature;BMP_pressure;BME280_temperature;BME280_humidity;BME280_pressure;Samples;Min_cycle;Max_cycle;Signal;HPM_P1;HPM_P2
2023/12/20 00:01:51;;;;;;;9.38;2.00;;;;;;;;;;4851953;29;20049;-83
2023/12/20 00:04:17;;;;;;;9.77;1.75;;;;;;;;;;4820785;29;20061;-83
2023/12/20 00:06:43;;;;;;;6.88;1.42;;;;;;;;;;4835443;29;20093;-83
2023/12/20 00:09:09;;;;;;;10.75;1.52;;;;;;;;;;4834537;29;20054;-82
2023/12/20 00:11:35;;;;;;;11.70;1.63;;;;;;;;;;4823341;29;20054;-83
2023/12/20 00:14:01;;;;;;;13.27;1.90;;;;;;;;;;4839771;29;20765;-82
2023/12/20 00:16:27;;;;;;;14.18;2.03;;;;;;;;;;4838683;29;20046;-82
2023/12/20 00:18:53;;;;;;;9.77;1.70;;;;;;;;;;4824561;29;20053;-83
2023/12/20 00:21:19;;;;;;;8.65;2.13;;;;;;;;;;4825205;29;20126;-83
2023/12/20 00:23:45;;;;;;;5.78;1.70;;;;;;;;;;4829790;29;20082;-83
2023/12/20 00:26:11;;;;;;;13.38;1.88;;;;;;;;;;4835624;29;20050;-82
2023/12/20 00:28:37;;;;;;;8.60;1.90;;;;;;;;;;4841963;29;20048;-82
2023/12/20 00:31:04;;;;;;;11.68;1.90;;;;;;;;;;4842080;29;20054;-82
2023/12/20 00:33:30;;;;;;;9.75;1.80;;;;;;;;;;4850383;29;20061;-82
2023/12/20 00:35:56;;;;;;;5.78;1.75;;;;;;;;;;4845851;29;20059;-82
2023/12/20 00:38:22;;;;;;;6.75;1.98;;;;;;;;;;4839567;29;20093;-82
2023/12/20 00:40:49;;;;;;;6.47;1.50;;;;;;;;;;4840070;29;20110;-82
2023/12/20 00:43:15;;;;;;;9.18;2.13;;;;;;;;;;4839819;29;20061;-83
2023/12/20 00:45:41;;;;;;;12.98;2.42;;;;;;;;;;4840766;29;20042;-83
2023/12/20 00:48:07;;;;;;;8.60;1.63;;;;;;;;;;4840351;29;20066;-82
2023/12/20 00:50:33;;;;;;;14.02;1.77;;;;;;;;;;4839847;29;20080;-83
2023/12/20 00:52:59;;;;;;;12.32;2.03;;;;;;;;;;4840884;29;20088;-82
2023/12/20 00:55:25;;;;;;;8.98;2.08;;;;;;;;;;4839523;29;20050;-82
2023/12/20 00:57:53;;;;;;;10.05;1.85;;;;;;;;;;4840809;29;20071;-82
2023/12/20 01:00:19;;;;;;;12.10;2.20;;;;;;;;;;4841770;29;20078;-83
2023/12/20 01:02:46;;;;;;;10.23;2.17;;;;;;;;;;4838760;29;20061;-82
2023/12/20 01:05:12;;;;;;;9.23;2.33;;;;;;;;;;4840555;29;20050;-82
2023/12/20 01:07:38;;;;;;;9.27;1.90;;;;;;;;;;4840480;29;20149;-82
2023/12/20 01:10:04;;;;;;;11.40;1.92;;;;;;;;;;4840840;29;20053;-82
2023/12/20 01:12:30;;;;;;;11.95;2.08;;;;;;;;;;4838573;29;20057;-82
2023/12/20 01:14:58;;;;;;;13.63;1.75;;;;;;;;;;4840095;29;20093;-82
2023/12/20 01:17:24;;;;;;;12.93;2.10;;;;;;;;;;4841006;29;20058;-82
2023/12/20 01:19:50;;;;;;;11.55;2.22;;;;;;;;;;4839814;29;20118;-82
2023/12/20 01:22:16;;;;;;;12.48;1.83;;;;;;;;;;4840716;29;20712;-82
2023/12/20 01:24:42;;;;;;;10.30;2.28;;;;;;;;;;4838634;29;20057;-82
2023/12/20 01:27:08;;;;;;;15.88;2.03;;;;;;;;;;4839355;29;20382;-82
2023/12/20 01:29:34;;;;;;;11.10;2.00;;;;;;;;;;4840256;29;20054;-82
2023/12/20 01:32:00;;;;;;;11.43;2.38;;;;;;;;;;4839723;29;20053;-82
2023/12/20 01:34:26;;;;;;;13.50;2.25;;;;;;;;;;4838578;29;20226;-83
2023/12/20 01:36:52;;;;;;;13.77;2.47;;;;;;;;;;4839959;29;20729;-82
2023/12/20 01:39:18;;;;;;;14.43;2.40;;;;;;;;;;4840328;29;20146;-82
2023/12/20 01:41:45;;;;;;;17.20;2.25;;;;;;;;;;4840498;29;20364;-82
2023/12/20 01:44:11;;;;;;;13.07;2.53;;;;;;;;;;4847602;29;20054;-83
2023/12/20 01:46:37;;;;;;;10.02;2.20;;;;;;;;;;4840740;29;20101;-83
2023/12/20 01:49:03;;;;;;;13.45;2.53;;;;;;;;;;4839029;29;20136;-83
2023/12/20 01:51:29;;;;;;;11.95;2.33;;;;;;;;;;4839417;29;20081;-83
2023/12/20 01:53:59;;;;;;;11.90;2.17;;;;;;;;;;4837583;29;20500;-82
2023/12/20 01:56:27;;;;;;;14.35;3.22;;;;;;;;;;4853116;29;20085;-82
2023/12/20 01:58:54;;;;;;;12.23;2.67;;;;;;;;;;4837549;29;20544;-82
2023/12/20 02:01:20;;;;;;;14.75;2.67;;;;;;;;;;4820867;29;20114;-83
2023/12/20 02:03:46;;;;;;;13.48;2.80;;;;;;;;;;4823996;29;20122;-82
2023/12/20 02:06:12;;;;;;;15.00;2.95;;;;;;;;;;4833236;29;20057;-82
2023/12/20 02:08:38;;;;;;;13.30;2.50;;;;;;;;;;4825648;29;20438;-82
2023/12/20 02:11:04;;;;;;;15.15;2.70;;;;;;;;;;4840035;29;20504;-83
2023/12/20 02:13:31;;;;;;;11.85;2.97;;;;;;;;;;4854184;29;20070;-82
2023/12/20 02:15:57;;;;;;;9.25;2.60;;;;;;;;;;4838968;29;20140;-82
2023/12/20 02:18:24;;;;;;;12.57;2.60;;;;;;;;;;4838011;29;20053;-82
2023/12/20 02:20:50;;;;;;;11.90;2.63;;;;;;;;;;4838052;29;21235;-82
2023/12/20 02:23:16;;;;;;;13.90;2.35;;;;;;;;;;4839754;29;20054;-82
2023/12/20 02:25:42;;;;;;;17.88;2.58;;;;;;;;;;4853120;29;20900;-82
2023/12/20 02:28:08;;;;;;;17.48;2.80;;;;;;;;;;4838041;29;20153;-82
2023/12/20 02:30:34;;;;;;;13.90;2.63;;;;;;;;;;4854112;29;20050;-82
2023/12/20 02:33:01;;;;;;;9.20;2.53;;;;;;;;;;4853278;29;20074;-83
2023/12/20 02:35:27;;;;;;;13.05;2.85;;;;;;;;;;4839106;29;20553;-82
2023/12/20 02:37:53;;;;;;;10.90;2.40;;;;;;;;;;4838640;29;20058;-82
2023/12/20 02:40:19;;;;;;;11.45;2.42;;;;;;;;;;4838389;29;20078;-82
2023/12/20 02:42:45;;;;;;;12.93;2.45;;;;;;;;;;4821822;29;20054;-82
2023/12/20 02:45:11;;;;;;;14.85;2.40;;;;;;;;;;4820300;29;20050;-82
2023/12/20 02:47:37;;;;;;;11.55;2.97;;;;;;;;;;4820655;29;20049;-82
2023/12/20 02:50:03;;;;;;;10.65;2.38;;;;;;;;;;4838435;29;20220;-82
2023/12/20 02:52:29;;;;;;;11.75;2.38;;;;;;;;;;4837413;29;20083;-82
2023/12/20 02:54:55;;;;;;;11.95;2.55;;;;;;;;;;4839319;29;20050;-82
2023/12/20 02:57:21;;;;;;;16.95;2.58;;;;;;;;;;4836404;29;20102;-82
2023/12/20 02:59:47;;;;;;;16.77;2.80;;;;;;;;;;4838709;29;20049;-82
2023/12/20 03:02:13;;;;;;;14.70;2.30;;;;;;;;;;4837911;29;20050;-82
2023/12/20 03:04:39;;;;;;;15.20;3.15;;;;;;;;;;4837941;29;20065;-82
2023/12/20 03:07:05;;;;;;;18.60;3.95;;;;;;;;;;4837502;29;20086;-82
2023/12/20 03:09:32;;;;;;;13.05;2.70;;;;;;;;;;4839634;29;20092;-82
2023/12/20 03:11:58;;;;;;;14.45;2.92;;;;;;;;;;4827458;29;20124;-82
2023/12/20 03:14:24;;;;;;;12.13;2.42;;;;;;;;;;4840678;29;20139;-82
2023/12/20 03:16:50;;;;;;;21.73;4.05;;;;;;;;;;4840612;29;20054;-82
2023/12/20 03:19:17;;;;;;;16.65;2.90;;;;;;;;;;4821164;29;20053;-82
2023/12/20 03:21:43;;;;;;;19.27;3.38;;;;;;;;;;4819050;29;20054;-82
2023/12/20 03:24:09;;;;;;;17.17;3.50;;;;;;;;;;4820835;29;20058;-82
2023/12/20 03:26:35;;;;;;;17.13;3.33;;;;;;;;;;4825905;29;20102;-82
2023/12/20 03:29:01;;;;;;;18.00;3.38;;;;;;;;;;4838977;29;20053;-83
2023/12/20 03:31:27;;;;;;;16.02;3.35;;;;;;;;;;4837615;29;20081;-82
2023/12/20 03:33:53;;;;;;;16.63;2.88;;;;;;;;;;4838684;29;20531;-82
2023/12/20 03:36:19;;;;;;;16.27;2.92;;;;;;;;;;4838246;29;20288;-82
2023/12/20 03:38:45;;;;;;;21.02;3.78;;;;;;;;;;4837630;29;20169;-82
2023/12/20 03:41:12;;;;;;;14.90;3.00;;;;;;;;;;4836112;29;20046;-82
2023/12/20 03:43:38;;;;;;;19.13;3.42;;;;;;;;;;4835935;29;20057;-81
2023/12/20 03:46:04;;;;;;;14.48;3.38;;;;;;;;;;4838151;29;20528;-82
2023/12/20 03:48:31;;;;;;;12.50;2.90;;;;;;;;;;4838455;29;20049;-82
2023/12/20 03:50:57;;;;;;;16.52;3.03;;;;;;;;;;4837287;29;20065;-82
2023/12/20 03:53:23;;;;;;;16.05;4.13;;;;;;;;;;4838188;29;20081;-82
2023/12/20 03:55:49;;;;;;;13.95;3.20;;;;;;;;;;4835756;29;20552;-82
2023/12/20 03:58:15;;;;;;;17.83;3.05;;;;;;;;;;4835917;29;20061;-83
2023/12/20 04:00:41;;;;;;;22.90;3.40;;;;;;;;;;4838650;29;20520;-82
2023/12/20 04:03:07;;;;;;;22.92;3.30;;;;;;;;;;4837756;29;20050;-83
2023/12/20 04:05:33;;;;;;;26.65;3.42;;;;;;;;;;4837499;29;20061;-82
2023/12/20 04:08:00;;;;;;;18.10;3.38;;;;;;;;;;4835154;29;20058;-82
2023/12/20 04:10:26;;;;;;;19.90;3.13;;;;;;;;;;4838467;29;20069;-82
2023/12/20 04:12:52;;;;;;;22.52;4.35;;;;;;;;;;4838121;29;20497;-83
2023/12/20 04:15:18;;;;;;;22.13;3.97;;;;;;;;;;4838564;29;20159;-82
2023/12/20 04:17:44;;;;;;;19.15;3.40;;;;;;;;;;4836986;29;20056;-82
2023/12/20 04:20:10;;;;;;;17.63;3.20;;;;;;;;;;4838184;29;20133;-82
2023/12/20 04:22:36;;;;;;;22.52;3.67;;;;;;;;;;4833958;29;20400;-82
2023/12/20 04:25:02;;;;;;;18.17;3.75;;;;;;;;;;4836662;29;20042;-82
2023/12/20 04:27:28;;;;;;;21.10;3.55;;;;;;;;;;4837083;29;20149;-82
2023/12/20 04:29:54;;;;;;;17.90;3.58;;;;;;;;;;4837595;29;20050;-82
2023/12/20 04:32:20;;;;;;;24.42;3.88;;;;;;;;;;4832989;29;20110;-82
2023/12/20 04:34:46;;;;;;;20.20;3.85;;;;;;;;;;4818357;29;20070;-83
2023/12/20 04:37:12;;;;;;;18.08;3.40;;;;;;;;;;4831447;29;20057;-83
2023/12/20 04:39:38;;;;;;;21.75;3.72;;;;;;;;;;4836781;29;20050;-82
2023/12/20 04:42:04;;;;;;;19.23;3.95;;;;;;;;;;4836873;29;20497;-82
2023/12/20 04:44:30;;;;;;;16.58;3.45;;;;;;;;;;4835234;29;20069;-83
2023/12/20 04:46:57;;;;;;;19.40;3.65;;;;;;;;;;4820261;29;20060;-83
2023/12/20 04:49:23;;;;;;;17.77;3.80;;;;;;;;;;4834868;29;20066;-83
2023/12/20 04:51:49;;;;;;;25.52;3.75;;;;;;;;;;4834498;29;20516;-82
2023/12/20 04:54:15;;;;;;;23.73;4.78;;;;;;;;;;4835958;29;20057;-83
2023/12/20 04:56:41;;;;;;;19.10;3.47;;;;;;;;;;4840365;29;20050;-82
2023/12/20 04:59:07;;;;;;;20.52;4.70;;;;;;;;;;4837324;29;20163;-82
2023/12/20 05:01:33;;;;;;;23.48;3.80;;;;;;;;;;4839121;29;20054;-82
2023/12/20 05:03:59;;;;;;;20.75;4.18;;;;;;;;;;4840597;29;20918;-83
2023/12/20 05:06:25;;;;;;;21.77;3.40;;;;;;;;;;4854600;29;20214;-82
2023/12/20 05:08:51;;;;;;;21.23;3.85;;;;;;;;;;4837198;29;20121;-83
2023/12/20 05:11:17;;;;;;;14.40;3.35;;;;;;;;;;4839956;29;20046;-83
2023/12/20 05:13:43;;;;;;;21.00;4.22;;;;;;;;;;4840396;29;20050;-82
2023/12/20 05:16:09;;;;;;;21.42;4.18;;;;;;;;;;4840327;29;20136;-83
2023/12/20 05:18:35;;;;;;;14.85;3.65;;;;;;;;;;4837185;29;20160;-82
2023/12/20 05:21:02;;;;;;;18.08;3.90;;;;;;;;;;4839609;29;20065;-83
2023/12/20 05:23:27;;;;;;;25.40;4.32;;;;;;;;;;4839546;29;20054;-83
2023/12/20 05:25:53;;;;;;;19.95;3.45;;;;;;;;;;4839483;29;20053;-82
2023/12/20 05:28:20;;;;;;;20.23;3.85;;;;;;;;;;4839772;29;20133;-82
2023/12/20 05:30:46;;;;;;;23.20;4.55;;;;;;;;;;4839827;29;20064;-82
2023/12/20 05:33:12;;;;;;;21.30;4.38;;;;;;;;;;4840684;29;20198;-83
2023/12/20 05:35:38;;;;;;;24.85;4.78;;;;;;;;;;4839480;29;20572;-82
2023/12/20 05:38:04;;;;;;;18.20;3.35;;;;;;;;;;4839062;29;20065;-83
2023/12/20 05:40:30;;;;;;;18.63;4.28;;;;;;;;;;4839257;29;20054;-82
2023/12/20 05:42:56;;;;;;;16.45;4.35;;;;;;;;;;4840717;29;20144;-82
2023/12/20 05:45:22;;;;;;;25.27;3.85;;;;;;;;;;4839170;29;20049;-82
2023/12/20 05:47:48;;;;;;;18.15;3.70;;;;;;;;;;4839349;29;20061;-83
2023/12/20 05:50:14;;;;;;;13.43;3.63;;;;;;;;;;4838468;29;20054;-82
2023/12/20 05:52:41;;;;;;;16.52;3.45;;;;;;;;;;4838761;29;20141;-82
2023/12/20 05:55:07;;;;;;;25.20;3.90;;;;;;;;;;4839627;29;20130;-82
2023/12/20 05:57:33;;;;;;;20.65;3.67;;;;;;;;;;4839036;29;20554;-83
2023/12/20 05:59:59;;;;;;;22.30;3.40;;;;;;;;;;4839811;29;20046;-81
2023/12/20 06:02:25;;;;;;;20.35;4.40;;;;;;;;;;4838808;29;20157;-82
2023/12/20 06:04:51;;;;;;;24.42;4.35;;;;;;;;;;4838948;29;20053;-82
2023/12/20 06:07:18;;;;;;;15.15;3.63;;;;;;;;;;4839455;29;20115;-82
2023/12/20 06:09:44;;;;;;;20.33;3.63;;;;;;;;;;4837713;29;20053;-82
2023/12/20 06:12:10;;;;;;;20.02;4.00;;;;;;;;;;4838588;29;20151;-81
2023/12/20 06:14:36;;;;;;;18.88;4.57;;;;;;;;;;4839088;29;20054;-81
2023/12/20 06:17:02;;;;;;;19.85;5.00;;;;;;;;;;4854221;29;20501;-82
2023/12/20 06:19:29;;;;;;;24.23;4.05;;;;;;;;;;4840157;29;20106;-82
2023/12/20 06:21:55;;;;;;;17.67;3.97;;;;;;;;;;4836931;29;20088;-82
2023/12/20 06:24:21;;;;;;;19.85;4.13;;;;;;;;;;4853701;29;20085;-82
2023/12/20 06:26:47;;;;;;;20.15;3.75;;;;;;;;;;4840901;29;20518;-82
2023/12/20 06:29:13;;;;;;;23.95;3.58;;;;;;;;;;4839230;29;20483;-82
2023/12/20 06:31:39;;;;;;;21.02;3.58;;;;;;;;;;4839513;29;20073;-82
2023/12/20 06:34:05;;;;;;;22.27;3.78;;;;;;;;;;4837764;29;20728;-82
2023/12/20 06:36:31;;;;;;;18.35;3.88;;;;;;;;;;4837492;29;20053;-82
2023/12/20 06:38:57;;;;;;;20.27;3.58;;;;;;;;;;4839263;29;20054;-81
2023/12/20 06:41:24;;;;;;;16.45;3.88;;;;;;;;;;4838377;29;20088;-81
2023/12/20 06:43:51;;;;;;;17.73;3.30;;;;;;;;;;4838087;29;20085;-81
2023/12/20 06:46:17;;;;;;;18.13;4.03;;;;;;;;;;4836054;29;20085;-81
2023/12/20 06:48:43;;;;;;;18.70;4.07;;;;;;;;;;4826955;29;20049;-80
2023/12/20 06:51:14;;;;;;;24.27;4.80;;;;;;;;;;4837546;29;20068;-80
2023/12/20 06:53:40;;;;;;;22.40;4.20;;;;;;;;;;4839247;29;20046;-80
2023/12/20 06:56:07;;;;;;;23.42;3.58;;;;;;;;;;4836901;29;20411;-80
2023/12/20 06:58:33;;;;;;;21.77;3.88;;;;;;;;;;4835607;29;20054;-80
2023/12/20 07:00:59;;;;;;;14.70;3.47;;;;;;;;;;4837440;29;20049;-80
2023/12/20 07:03:25;;;;;;;15.05;4.18;;;;;;;;;;4837005;29;20118;-80
2023/12/20 07:05:51;;;;;;;13.43;3.40;;;;;;;;;;4836390;29;20805;-81
2023/12/20 07:08:17;;;;;;;18.08;3.45;;;;;;;;;;4836965;29;20053;-77
2023/12/20 07:10:44;;;;;;;15.23;3.47;;;;;;;;;;4814767;29;20077;-82
2023/12/20 07:13:10;;;;;;;14.05;3.20;;;;;;;;;;4834722;29;20058;-78
2023/12/20 07:15:37;;;;;;;20.10;3.78;;;;;;;;;;4834972;29;20122;-78
2023/12/20 07:18:03;;;;;;;12.57;3.20;;;;;;;;;;4829560;29;20147;-79
2023/12/20 07:20:29;;;;;;;13.90;3.55;;;;;;;;;;4838291;29;20057;-80
2023/12/20 07:22:55;;;;;;;15.85;3.72;;;;;;;;;;4837473;29;20049;-80
2023/12/20 07:25:21;;;;;;;18.48;4.07;;;;;;;;;;4837673;29;20045;-80
2023/12/20 07:27:47;;;;;;;18.77;4.07;;;;;;;;;;4837204;29;20054;-80
2023/12/20 07:30:13;;;;;;;13.65;2.85;;;;;;;;;;4851724;29;20060;-81
2023/12/20 07:32:39;;;;;;;18.33;3.90;;;;;;;;;;4824204;29;20079;-76
2023/12/20 07:35:05;;;;;;;19.15;3.42;;;;;;;;;;4820102;29;20062;-81
2023/12/20 07:37:31;;;;;;;14.27;3.20;;;;;;;;;;4818834;29;20126;-80
2023/12/20 07:39:57;;;;;;;15.48;3.50;;;;;;;;;;4818974;29;20141;-80
2023/12/20 07:42:23;;;;;;;21.08;3.53;;;;;;;;;;4828130;29;20129;-81
2023/12/20 07:44:49;;;;;;;18.50;4.30;;;;;;;;;;4837523;29;20042;-81
2023/12/20 07:47:19;;;;;;;16.77;3.67;;;;;;;;;;4837970;29;20147;-81
2023/12/20 07:49:45;;;;;;;16.13;3.35;;;;;;;;;;4838355;29;20053;-82
2023/12/20 07:52:11;;;;;;;19.45;3.95;;;;;;;;;;4833561;29;20119;-81
2023/12/20 07:54:37;;;;;;;17.67;3.97;;;;;;;;;;4818640;29;20057;-81
2023/12/20 07:57:03;;;;;;;12.90;4.15;;;;;;;;;;4820045;29;20062;-81
2023/12/20 07:59:29;;;;;;;19.13;3.92;;;;;;;;;;4828232;29;20101;-81
2023/12/20 08:01:55;;;;;;;19.63;3.53;;;;;;;;;;4838376;29;20094;-81
2023/12/20 08:04:22;;;;;;;18.98;3.70;;;;;;;;;;4838374;29;20457;-81
2023/12/20 08:06:48;;;;;;;22.92;4.10;;;;;;;;;;4836413;29;20115;-82
2023/12/20 08:09:14;;;;;;;19.58;4.32;;;;;;;;;;4837197;29;20094;-81
2023/12/20 08:11:40;;;;;;;24.80;4.68;;;;;;;;;;4837467;29;20177;-80
2023/12/20 08:14:06;;;;;;;13.27;3.17;;;;;;;;;;4837836;29;20514;-80
2023/12/20 08:16:32;;;;;;;18.95;3.45;;;;;;;;;;4836814;29;20045;-81
2023/12/20 08:18:58;;;;;;;19.40;3.75;;;;;;;;;;4837649;29;20049;-81
2023/12/20 08:21:24;;;;;;;15.88;3.53;;;;;;;;;;4836798;29;20101;-80
2023/12/20 08:23:50;;;;;;;17.13;3.20;;;;;;;;;;4837817;29;20058;-80
2023/12/20 08:26:20;;;;;;;21.25;3.50;;;;;;;;;;4837269;29;20062;-80
2023/12/20 08:28:46;;;;;;;17.33;3.58;;;;;;;;;;4836796;29;20183;-81
2023/12/20 08:31:16;;;;;;;21.23;3.75;;;;;;;;;;4840802;29;20496;-81
2023/12/20 08:33:42;;;;;;;17.30;3.50;;;;;;;;;;4840388;29;20388;-81
2023/12/20 08:36:08;;;;;;;20.40;3.70;;;;;;;;;;4840622;29;20166;-81
2023/12/20 08:38:34;;;;;;;23.95;3.58;;;;;;;;;;4840307;29;20501;-80
2023/12/20 08:41:01;;;;;;;23.55;4.18;;;;;;;;;;4839908;29;20065;-82
2023/12/20 08:43:27;;;;;;;21.05;3.88;;;;;;;;;;4828700;29;20119;-80
2023/12/20 08:45:53;;;;;;;20.25;4.30;;;;;;;;;;4820550;29;20462;-81
2023/12/20 08:48:19;;;;;;;18.85;4.43;;;;;;;;;;4821052;29;20137;-80
2023/12/20 08:50:45;;;;;;;23.90;4.38;;;;;;;;;;4820497;29;20054;-80
2023/12/20 08:53:11;;;;;;;14.50;3.60;;;;;;;;;;4821574;29;20138;-83
2023/12/20 08:55:37;;;;;;;17.88;3.45;;;;;;;;;;4823448;29;20497;-81
2023/12/20 08:58:03;;;;;;;22.63;4.85;;;;;;;;;;4835044;29;20086;-81
2023/12/20 09:00:29;;;;;;;19.58;3.50;;;;;;;;;;4840210;29;20497;-80
2023/12/20 09:02:55;;;;;;;15.40;3.20;;;;;;;;;;4839378;29;20153;-82
2023/12/20 09:05:22;;;;;;;19.02;3.40;;;;;;;;;;4823255;29;20148;-81
2023/12/20 09:07:48;;;;;;;19.40;4.07;;;;;;;;;;4822114;29;20129;-80
2023/12/20 09:10:14;;;;;;;13.95;3.92;;;;;;;;;;4822141;29;20121;-81
2023/12/20 09:12:40;;;;;;;18.25;3.80;;;;;;;;;;4821037;29;20062;-81
2023/12/20 09:15:07;;;;;;;13.52;3.47;;;;;;;;;;4820507;29;20582;-81
2023/12/20 09:17:33;;;;;;;16.83;3.97;;;;;;;;;;4821736;29;20434;-80
2023/12/20 09:19:59;;;;;;;17.58;3.50;;;;;;;;;;4823912;29;20065;-81
2023/12/20 09:22:26;;;;;;;15.60;3.05;;;;;;;;;;4829986;29;20054;-81
2023/12/20 09:24:52;;;;;;;16.38;4.05;;;;;;;;;;4821522;29;20103;-80
2023/12/20 09:27:18;;;;;;;13.95;3.70;;;;;;;;;;4835785;29;20053;-80
2023/12/20 09:29:44;;;;;;;17.60;3.85;;;;;;;;;;4834258;29;20144;-80
2023/12/20 09:32:10;;;;;;;19.85;3.58;;;;;;;;;;4840557;29;20427;-82
2023/12/20 09:34:37;;;;;;;15.50;3.47;;;;;;;;;;4838456;29;20465;-80
2023/12/20 09:37:03;;;;;;;16.05;3.42;;;;;;;;;;4825097;29;20062;-81
2023/12/20 09:39:31;;;;;;;15.85;3.50;;;;;;;;;;4830469;29;20057;-81
2023/12/20 09:42:02;;;;;;;19.90;3.42;;;;;;;;;;4836699;29;20528;-82
2023/12/20 09:44:28;;;;;;;16.08;3.63;;;;;;;;;;4822227;29;20058;-83
2023/12/20 09:46:55;;;;;;;11.63;2.78;;;;;;;;;;4819647;29;20787;-81
2023/12/20 09:49:21;;;;;;;6.95;1.83;;;;;;;;;;4820634;29;20528;-83
2023/12/20 09:51:48;;;;;;;5.57;1.35;;;;;;;;;;4819612;29;20090;-81
2023/12/20 09:54:21;;;;;;;7.72;1.58;;;;;;;;;;4832990;29;20046;-82
2023/12/20 09:56:47;;;;;;;4.55;1.30;;;;;;;;;;4839586;29;20064;-82
2023/12/20 09:59:13;;;;;;;6.93;1.20;;;;;;;;;;4836707;29;20053;-82
2023/12/20 10:01:43;;;;;;;7.32;1.27;;;;;;;;;;4839430;29;20118;-81
2023/12/20 10:04:12;;;;;;;6.75;0.80;;;;;;;;;;4839472;29;20078;-82
2023/12/20 10:06:45;;;;;;;6.03;1.17;;;;;;;;;;4837278;29;20058;-83
2023/12/20 10:09:11;;;;;;;3.40;0.82;;;;;;;;;;4835956;29;20153;-82
2023/12/20 10:11:38;;;;;;;5.55;1.08;;;;;;;;;;4835770;29;20046;-82
2023/12/20 10:14:04;;;;;;;5.45;1.05;;;;;;;;;;4836504;29;20050;-82
2023/12/20 10:16:30;;;;;;;4.63;1.38;;;;;;;;;;4837786;29;20057;-82
2023/12/20 10:18:57;;;;;;;4.63;1.40;;;;;;;;;;4837901;29;20571;-81
2023/12/20 10:21:26;;;;;;;5.70;1.00;;;;;;;;;;4837426;29;20174;-80
2023/12/20 10:23:52;;;;;;;10.52;1.55;;;;;;;;;;4837844;29;20098;-78
2023/12/20 10:26:25;;;;;;;6.00;1.85;;;;;;;;;;4838637;29;20501;-79
2023/12/20 10:28:52;;;;;;;4.15;1.35;;;;;;;;;;4838524;29;20133;-80
2023/12/20 10:31:28;;;;;;;4.72;1.30;;;;;;;;;;4836189;29;20096;-79
2023/12/20 10:33:54;;;;;;;7.40;1.33;;;;;;;;;;4837432;29;20058;-84
2023/12/20 10:36:21;;;;;;;3.95;0.98;;;;;;;;;;4837865;29;20069;-81
2023/12/20 10:38:49;;;;;;;7.50;1.17;;;;;;;;;;4838879;29;20080;-83
2023/12/20 10:41:17;;;;;;;9.77;1.70;;;;;;;;;;4837685;29;20114;-82
2023/12/20 10:43:43;;;;;;;4.65;1.20;;;;;;;;;;4835012;29;20117;-80
2023/12/20 10:46:09;;;;;;;7.72;1.27;;;;;;;;;;4826408;29;20066;-81
2023/12/20 10:48:36;;;;;;;4.57;1.30;;;;;;;;;;4836521;29;20141;-81
2023/12/20 10:51:02;;;;;;;8.88;1.67;;;;;;;;;;4837230;29;20084;-81
2023/12/20 10:53:28;;;;;;;5.47;1.20;;;;;;;;;;4825505;29;20053;-81
2023/12/20 10:55:59;;;;;;;9.23;1.45;;;;;;;;;;4834754;29;20085;-82
2023/12/20 10:58:26;;;;;;;5.93;1.20;;;;;;;;;;4837161;29;20081;-82
2023/12/20 11:00:58;;;;;;;4.70;1.00;;;;;;;;;;4838002;29;20154;-82
2023/12/20 11:03:26;;;;;;;4.63;1.20;;;;;;;;;;4836117;29;20062;-82
2023/12/20 11:06:10;;;;;;;7.40;1.45;;;;;;;;;;4836266;29;20058;-81
2023/12/20 11:08:39;;;;;;;5.22;1.33;;;;;;;;;;4837409;29;20054;-82
2023/12/20 11:11:12;;;;;;;6.45;1.55;;;;;;;;;;4838388;29;20046;-82
2023/12/20 11:13:41;;;;;;;7.38;1.80;;;;;;;;;;4834989;29;20493;-82
2023/12/20 11:16:07;;;;;;;9.20;1.75;;;;;;;;;;4820430;29;20078;-82
2023/12/20 11:18:33;;;;;;;9.77;1.95;;;;;;;;;;4822160;29;20089;-83
2023/12/20 11:21:04;;;;;;;7.90;1.50;;;;;;;;;;4835840;29;20077;-82
2023/12/20 11:23:33;;;;;;;6.90;1.33;;;;;;;;;;4845570;29;20373;-82
2023/12/20 11:25:59;;;;;;;4.90;1.20;;;;;;;;;;4837866;29;20130;-81
2023/12/20 11:28:25;;;;;;;9.77;1.38;;;;;;;;;;4836703;29;20129;-82
2023/12/20 11:30:53;;;;;;;8.38;1.42;;;;;;;;;;4835855;29;20066;-81
2023/12/20 11:33:26;;;;;;;8.32;1.10;;;;;;;;;;4836662;29;20366;-82
2023/12/20 11:35:52;;;;;;;7.28;1.70;;;;;;;;;;4835874;29;20409;-82
2023/12/20 11:38:21;;;;;;;6.05;1.67;;;;;;;;;;4835686;29;20081;-82
2023/12/20 11:40:49;;;;;;;11.02;1.88;;;;;;;;;;4836741;29;20133;-82
2023/12/20 11:43:30;;;;;;;10.20;1.85;;;;;;;;;;4829288;29;20053;-82
2023/12/20 11:46:03;;;;;;;4.88;1.27;;;;;;;;;;4818754;29;20058;-81
2023/12/20 11:48:29;;;;;;;4.22;1.50;;;;;;;;;;4818356;29;20137;-81
2023/12/20 11:50:55;;;;;;;5.38;1.60;;;;;;;;;;4817937;29;20638;-81
2023/12/20 11:53:21;;;;;;;7.43;1.45;;;;;;;;;;4818753;29;20054;-82
2023/12/20 11:55:48;;;;;;;7.20;2.38;;;;;;;;;;4821708;29;20043;-82
2023/12/20 11:58:16;;;;;;;6.78;1.38;;;;;;;;;;4836711;29;20049;-81
2023/12/20 12:00:43;;;;;;;10.13;1.80;;;;;;;;;;4821934;29;20065;-81
2023/12/20 12:03:09;;;;;;;8.38;2.25;;;;;;;;;;4833385;29;20050;-81
2023/12/20 12:05:35;;;;;;;10.38;1.80;;;;;;;;;;4818596;29;20054;-81
2023/12/20 12:08:02;;;;;;;11.05;1.70;;;;;;;;;;4817731;29;20062;-81
2023/12/20 12:10:30;;;;;;;11.20;2.80;;;;;;;;;;4817806;29;20053;-82
2023/12/20 12:12:56;;;;;;;10.10;1.83;;;;;;;;;;4824214;29;20658;-82
2023/12/20 12:15:22;;;;;;;11.82;1.90;;;;;;;;;;4818226;29;20134;-80
2023/12/20 12:17:59;;;;;;;11.07;1.92;;;;;;;;;;4817394;29;20165;-80
2023/12/20 12:20:25;;;;;;;9.57;2.08;;;;;;;;;;4836567;29;20532;-83
2023/12/20 12:22:58;;;;;;;6.05;1.60;;;;;;;;;;4835022;29;20133;-83
2023/12/20 12:25:24;;;;;;;9.45;2.05;;;;;;;;;;4835582;29;20510;-81
2023/12/20 12:27:51;;;;;;;12.63;1.98;;;;;;;;;;4834736;29;20057;-84
2023/12/20 12:30:18;;;;;;;7.68;1.73;;;;;;;;;;4835779;29;20057;-84
2023/12/20 12:32:48;;;;;;;11.65;1.77;;;;;;;;;;4836379;29;20065;-83
2023/12/20 12:35:14;;;;;;;11.18;1.63;;;;;;;;;;4837367;29;20054;-84
2023/12/20 12:37:41;;;;;;;10.80;2.28;;;;;;;;;;4837668;29;20141;-84
2023/12/20 12:40:10;;;;;;;6.50;1.73;;;;;;;;;;4834912;29;20050;-84
2023/12/20 12:42:35;;;;;;;7.60;1.80;;;;;;;;;;4837681;29;20107;-84
2023/12/20 12:45:01;;;;;;;7.55;1.92;;;;;;;;;;4851248;29;20599;-83
2023/12/20 12:47:28;;;;;;;5.80;1.30;;;;;;;;;;4851862;29;20105;-83
2023/12/20 12:49:54;;;;;;;5.93;1.20;;;;;;;;;;4837104;29;20053;-83
2023/12/20 12:52:20;;;;;;;7.68;1.50;;;;;;;;;;4836714;29;20408;-83
2023/12/20 12:54:46;;;;;;;8.55;1.80;;;;;;;;;;4836929;29;20207;-83
2023/12/20 12:57:12;;;;;;;8.60;1.98;;;;;;;;;;4819031;29;20064;-84
2023/12/20 12:59:38;;;;;;;12.77;1.88;;;;;;;;;;4832882;29;20054;-84
2023/12/20 13:02:04;;;;;;;10.98;1.85;;;;;;;;;;4817747;29;20057;-84
2023/12/20 13:04:31;;;;;;;8.57;1.60;;;;;;;;;;4817629;29;20683;-83
2023/12/20 13:06:57;;;;;;;7.10;1.70;;;;;;;;;;4816931;29;20068;-85
2023/12/20 13:09:23;;;;;;;12.73;1.70;;;;;;;;;;4817765;29;20078;-84
2023/12/20 13:11:50;;;;;;;8.40;1.55;;;;;;;;;;4818722;29;20050;-84
2023/12/20 13:14:16;;;;;;;10.20;1.65;;;;;;;;;;4820943;29;20050;-83
2023/12/20 13:16:42;;;;;;;7.40;1.50;;;;;;;;;;4838383;29;20117;-83
2023/12/20 13:19:09;;;;;;;9.15;1.90;;;;;;;;;;4838976;29;20058;-83
2023/12/20 13:21:36;;;;;;;7.80;1.50;;;;;;;;;;4840720;29;20049;-83
2023/12/20 13:24:01;;;;;;;7.35;1.75;;;;;;;;;;4838535;29;20057;-84
2023/12/20 13:26:27;;;;;;;8.30;2.22;;;;;;;;;;4840167;29;20493;-83
2023/12/20 13:28:54;;;;;;;8.25;1.88;;;;;;;;;;4838120;29;20045;-83
2023/12/20 13:31:20;;;;;;;8.93;1.60;;;;;;;;;;4823984;29;20058;-84
2023/12/20 13:33:46;;;;;;;7.15;2.38;;;;;;;;;;4839656;29;20105;-82
2023/12/20 13:36:12;;;;;;;6.57;2.10;;;;;;;;;;4838212;29;20054;-83
2023/12/20 13:38:38;;;;;;;10.52;1.98;;;;;;;;;;4838751;29;20069;-84
2023/12/20 13:41:05;;;;;;;12.75;2.17;;;;;;;;;;4822928;29;20076;-83
2023/12/20 13:43:32;;;;;;;6.97;1.90;;;;;;;;;;4823463;29;20105;-83
2023/12/20 13:45:58;;;;;;;8.38;1.73;;;;;;;;;;4839845;29;20493;-84
2023/12/20 13:48:24;;;;;;;7.15;1.35;;;;;;;;;;4838345;29;20110;-83
2023/12/20 13:50:50;;;;;;;7.60;1.42;;;;;;;;;;4836423;29;20124;-83
2023/12/20 13:53:16;;;;;;;7.10;1.60;;;;;;;;;;4838390;29;20069;-83
2023/12/20 13:55:42;;;;;;;6.68;1.65;;;;;;;;;;4839337;29;20049;-84
2023/12/20 13:58:10;;;;;;;7.28;1.95;;;;;;;;;;4838571;29;20416;-85
2023/12/20 14:00:36;;;;;;;9.50;1.45;;;;;;;;;;4837984;29;20484;-84
2023/12/20 14:03:02;;;;;;;7.60;1.98;;;;;;;;;;4838191;29;20077;-85
2023/12/20 14:05:28;;;;;;;5.93;1.48;;;;;;;;;;4822675;29;20042;-85
2023/12/20 14:07:57;;;;;;;5.22;1.40;;;;;;;;;;4834892;29;20060;-84
2023/12/20 14:10:23;;;;;;;5.47;2.05;;;;;;;;;;4837518;29;20092;-83
2023/12/20 14:12:49;;;;;;;7.07;1.88;;;;;;;;;;4838929;29;20085;-84
2023/12/20 14:15:15;;;;;;;6.93;1.65;;;;;;;;;;4837661;29;20130;-85
2023/12/20 14:17:44;;;;;;;9.20;1.88;;;;;;;;;;4852711;29;20534;-83
2023/12/20 14:20:12;;;;;;;8.30;1.90;;;;;;;;;;4836619;29;20050;-85
2023/12/20 14:22:43;;;;;;;3.75;1.55;;;;;;;;;;4833738;29;20050;-85
2023/12/20 14:25:12;;;;;;;8.95;2.25;;;;;;;;;;4819986;29;20057;-84
2023/12/20 14:27:38;;;;;;;6.03;1.50;;;;;;;;;;4819514;29;20095;-85
2023/12/20 14:30:04;;;;;;;6.22;1.33;;;;;;;;;;4822054;29;20497;-85